sensor_id;sensor_type;location;lat;lon;timestamp;P1;durP1;ratioP1;P2;durP2;ratioP2
11010;SDS011;5558;42.702;23.178;2023-05-29T00:00:45;5.87;;;4.50;;
11010;SDS011;5558;42.702;23.178;2023-05-29T00:03:12;6.43;;;4.30;;
11010;SDS011;5558;42.702;23.178;2023-05-29T00:05:39;8.83;;;4.60;;
11010;SDS011;5558;42.702;23.178;2023-05-29T00:08:06;6.97;;;4.20;;
11010;SDS011;5558;42.702;23.178;2023-05-29T00:10:34;4.97;;;4.47;;
11010;SDS011;5558;42.702;23.178;2023-05-29T00:13:02;5.43;;;4.57;;
11010;SDS011;5558;42.702;23.178;2023-05-29T00:15:29;7.47;;;4.90;;
11010;SDS011;5558;42.702;23.178;2023-05-29T00:17:56;6.43;;;5.30;;
11010;SDS011;5558;42.702;23.178;2023-05-29T00:20:23;6.30;;;5.37;;
11010;SDS011;5558;42.702;23.178;2023-05-29T00:22:49;9.00;;;6.20;;
11010;SDS011;5558;42.702;23.178;2023-05-29T00:25:16;6.67;;;5.77;;
11010;SDS011;5558;42.702;23.178;2023-05-29T00:27:45;8.57;;;6.10;;
11010;SDS011;5558;42.702;23.178;2023-05-29T00:30:12;7.90;;;6.07;;
11010;SDS011;5558;42.702;23.178;2023-05-29T00:32:39;7.00;;;5.63;;
11010;SDS011;5558;42.702;23.178;2023-05-29T00:35:06;7.00;;;5.47;;
11010;SDS011;5558;42.702;23.178;2023-05-29T00:37:33;5.60;;;5.10;;
11010;SDS011;5558;42.702;23.178;2023-05-29T00:40:00;5.63;;;4.90;;
11010;SDS011;5558;42.702;23.178;2023-05-29T00:42:28;5.33;;;4.83;;
11010;SDS011;5558;42.702;23.178;2023-05-29T00:44:56;10.30;;;5.40;;
11010;SDS011;5558;42.702;23.178;2023-05-29T00:47:23;7.00;;;5.00;;
11010;SDS011;5558;42.702;23.178;2023-05-29T00:49:50;7.20;;;4.90;;
11010;SDS011;5558;42.702;23.178;2023-05-29T00:52:18;5.20;;;4.70;;
11010;SDS011;5558;42.702;23.178;2023-05-29T00:54:46;5.80;;;4.60;;
11010;SDS011;5558;42.702;23.178;2023-05-29T00:57:13;6.07;;;4.60;;
11010;SDS011;5558;42.702;23.178;2023-05-29T00:59:41;5.53;;;4.80;;
11010;SDS011;5558;42.702;23.178;2023-05-29T01:02:11;6.23;;;4.83;;
11010;SDS011;5558;42.702;23.178;2023-05-29T01:04:38;5.50;;;5.00;;
11010;SDS011;5558;42.702;23.178;2023-05-29T01:07:05;7.30;;;5.47;;
11010;SDS011;5558;42.702;23.178;2023-05-29T01:09:34;5.70;;;5.20;;
11010;SDS011;5558;42.702;23.178;2023-05-29T01:12:03;5.60;;;5.00;;
11010;SDS011;5558;42.702;23.178;2023-05-29T01:14:44;6.27;;;5.23;;
11010;SDS011;5558;42.702;23.178;2023-05-29T01:17:22;6.23;;;5.23;;
11010;SDS011;5558;42.702;23.178;2023-05-29T01:20:10;6.10;;;5.50;;
11010;SDS011;5558;42.702;23.178;2023-05-29T01:25:44;6.13;;;5.20;;
11010;SDS011;5558;42.702;23.178;2023-05-29T01:28:19;6.30;;;5.07;;
11010;SDS011;5558;42.702;23.178;2023-05-29T01:30:49;6.00;;;5.20;;
11010;SDS011;5558;42.702;23.178;2023-05-29T01:33:17;6.73;;;6.13;;
11010;SDS011;5558;42.702;23.178;2023-05-29T01:35:44;7.07;;;6.37;;
11010;SDS011;5558;42.702;23.178;2023-05-29T01:38:10;7.43;;;6.60;;
11010;SDS011;5558;42.702;23.178;2023-05-29T01:40:37;7.27;;;6.63;;
11010;SDS011;5558;42.702;23.178;2023-05-29T01:43:04;7.50;;;6.80;;
11010;SDS011;5558;42.702;23.178;2023-05-29T01:45:33;7.03;;;6.33;;
11010;SDS011;5558;42.702;23.178;2023-05-29T01:48:01;7.33;;;6.00;;
11010;SDS011;5558;42.702;23.178;2023-05-29T01:50:28;6.67;;;5.90;;
11010;SDS011;5558;42.702;23.178;2023-05-29T01:52:56;5.77;;;5.17;;
11010;SDS011;5558;42.702;23.178;2023-05-29T01:55:23;5.87;;;5.27;;
11010;SDS011;5558;42.702;23.178;2023-05-29T01:57:50;5.30;;;4.80;;
11010;SDS011;5558;42.702;23.178;2023-05-29T02:00:18;6.47;;;5.00;;
11010;SDS011;5558;42.702;23.178;2023-05-29T02:02:47;5.33;;;4.83;;
11010;SDS011;5558;42.702;23.178;2023-05-29T02:05:14;6.17;;;5.50;;
11010;SDS011;5558;42.702;23.178;2023-05-29T02:07:42;6.67;;;5.70;;
11010;SDS011;5558;42.702;23.178;2023-05-29T02:10:09;7.20;;;6.23;;
11010;SDS011;5558;42.702;23.178;2023-05-29T02:12:36;7.83;;;6.07;;
11010;SDS011;5558;42.702;23.178;2023-05-29T02:15:03;6.47;;;5.87;;
11010;SDS011;5558;42.702;23.178;2023-05-29T02:17:31;6.40;;;5.80;;
11010;SDS011;5558;42.702;23.178;2023-05-29T02:19:59;7.33;;;6.30;;
11010;SDS011;5558;42.702;23.178;2023-05-29T02:22:26;7.03;;;6.40;;
11010;SDS011;5558;42.702;23.178;2023-05-29T02:24:53;7.47;;;6.60;;
11010;SDS011;5558;42.702;23.178;2023-05-29T02:27:19;7.20;;;6.57;;
11010;SDS011;5558;42.702;23.178;2023-05-29T02:29:46;7.63;;;6.80;;
11010;SDS011;5558;42.702;23.178;2023-05-29T02:32:13;7.67;;;6.80;;
11010;SDS011;5558;42.702;23.178;2023-05-29T02:34:40;8.27;;;7.17;;
11010;SDS011;5558;42.702;23.178;2023-05-29T02:37:08;8.47;;;7.40;;
11010;SDS011;5558;42.702;23.178;2023-05-29T02:39:34;7.80;;;6.93;;
11010;SDS011;5558;42.702;23.178;2023-05-29T02:42:01;8.30;;;7.50;;
11010;SDS011;5558;42.702;23.178;2023-05-29T02:44:28;9.03;;;8.13;;
11010;SDS011;5558;42.702;23.178;2023-05-29T02:46:55;9.13;;;8.33;;
11010;SDS011;5558;42.702;23.178;2023-05-29T02:49:21;9.80;;;8.90;;
11010;SDS011;5558;42.702;23.178;2023-05-29T02:51:48;10.60;;;8.80;;
11010;SDS011;5558;42.702;23.178;2023-05-29T02:54:16;10.70;;;9.70;;
11010;SDS011;5558;42.702;23.178;2023-05-29T02:56:43;11.13;;;10.03;;
11010;SDS011;5558;42.702;23.178;2023-05-29T02:59:09;11.20;;;10.10;;
11010;SDS011;5558;42.702;23.178;2023-05-29T03:01:36;10.40;;;9.40;;
11010;SDS011;5558;42.702;23.178;2023-05-29T03:04:03;11.43;;;9.87;;
11010;SDS011;5558;42.702;23.178;2023-05-29T03:06:30;12.97;;;9.60;;
11010;SDS011;5558;42.702;23.178;2023-05-29T03:08:57;10.70;;;9.70;;
11010;SDS011;5558;42.702;23.178;2023-05-29T03:11:26;11.03;;;9.80;;
11010;SDS011;5558;42.702;23.178;2023-05-29T03:13:54;11.23;;;10.03;;
11010;SDS011;5558;42.702;23.178;2023-05-29T03:16:20;11.90;;;10.63;;
11010;SDS011;5558;42.702;23.178;2023-05-29T03:18:47;11.13;;;9.93;;
11010;SDS011;5558;42.702;23.178;2023-05-29T03:21:14;11.10;;;10.10;;
11010;SDS011;5558;42.702;23.178;2023-05-29T03:23:41;12.30;;;11.10;;
11010;SDS011;5558;42.702;23.178;2023-05-29T03:26:08;12.33;;;11.13;;
11010;SDS011;5558;42.702;23.178;2023-05-29T03:28:37;11.67;;;10.47;;
11010;SDS011;5558;42.702;23.178;2023-05-29T03:31:03;12.80;;;11.57;;
11010;SDS011;5558;42.702;23.178;2023-05-29T03:33:30;12.40;;;11.30;;
11010;SDS011;5558;42.702;23.178;2023-05-29T03:35:57;12.50;;;11.20;;
11010;SDS011;5558;42.702;23.178;2023-05-29T03:38:24;10.93;;;9.87;;
11010;SDS011;5558;42.702;23.178;2023-05-29T03:40:50;9.33;;;8.43;;
11010;SDS011;5558;42.702;23.178;2023-05-29T03:43:17;8.70;;;7.80;;
11010;SDS011;5558;42.702;23.178;2023-05-29T03:45:45;8.80;;;7.90;;
11010;SDS011;5558;42.702;23.178;2023-05-29T03:48:12;8.90;;;8.10;;
11010;SDS011;5558;42.702;23.178;2023-05-29T03:50:40;7.87;;;7.17;;
11010;SDS011;5558;42.702;23.178;2023-05-29T03:53:07;8.57;;;7.77;;
11010;SDS011;5558;42.702;23.178;2023-05-29T03:55:33;8.00;;;7.30;;
11010;SDS011;5558;42.702;23.178;2023-05-29T03:58:01;8.33;;;7.50;;
11010;SDS011;5558;42.702;23.178;2023-05-29T04:00:27;8.23;;;7.47;;
11010;SDS011;5558;42.702;23.178;2023-05-29T04:02:56;10.10;;;7.63;;
11010;SDS011;5558;42.702;23.178;2023-05-29T04:05:22;9.10;;;7.73;;
11010;SDS011;5558;42.702;23.178;2023-05-29T04:07:50;8.87;;;7.53;;
11010;SDS011;5558;42.702;23.178;2023-05-29T04:10:17;9.20;;;7.03;;
11010;SDS011;5558;42.702;23.178;2023-05-29T04:12:44;7.37;;;6.67;;
11010;SDS011;5558;42.702;23.178;2023-05-29T04:15:11;7.73;;;6.30;;
11010;SDS011;5558;42.702;23.178;2023-05-29T04:17:37;6.50;;;5.90;;
11010;SDS011;5558;42.702;23.178;2023-05-29T04:20:06;6.53;;;5.93;;
11010;SDS011;5558;42.702;23.178;2023-05-29T04:22:34;6.90;;;6.20;;
11010;SDS011;5558;42.702;23.178;2023-05-29T04:25:01;6.93;;;6.13;;
11010;SDS011;5558;42.702;23.178;2023-05-29T04:27:28;7.77;;;6.67;;
11010;SDS011;5558;42.702;23.178;2023-05-29T04:29:57;8.30;;;7.00;;
11010;SDS011;5558;42.702;23.178;2023-05-29T04:32:23;7.07;;;6.47;;
11010;SDS011;5558;42.702;23.178;2023-05-29T04:34:51;8.00;;;7.20;;
11010;SDS011;5558;42.702;23.178;2023-05-29T04:37:19;7.80;;;7.00;;
11010;SDS011;5558;42.702;23.178;2023-05-29T04:39:55;7.70;;;6.70;;
11010;SDS011;5558;42.702;23.178;2023-05-29T04:42:22;7.13;;;6.43;;
11010;SDS011;5558;42.702;23.178;2023-05-29T04:44:50;7.13;;;6.47;;
11010;SDS011;5558;42.702;23.178;2023-05-29T04:47:17;7.27;;;6.27;;
11010;SDS011;5558;42.702;23.178;2023-05-29T04:49:44;8.20;;;6.17;;
11010;SDS011;5558;42.702;23.178;2023-05-29T04:52:14;8.40;;;6.70;;
11010;SDS011;5558;42.702;23.178;2023-05-29T04:54:42;10.30;;;9.13;;
11010;SDS011;5558;42.702;23.178;2023-05-29T04:57:09;7.97;;;7.00;;
11010;SDS011;5558;42.702;23.178;2023-05-29T04:59:36;6.10;;;5.47;;
11010;SDS011;5558;42.702;23.178;2023-05-29T05:02:03;6.87;;;5.20;;
11010;SDS011;5558;42.702;23.178;2023-05-29T05:04:31;5.47;;;4.90;;
11010;SDS011;5558;42.702;23.178;2023-05-29T05:06:58;5.10;;;4.60;;
11010;SDS011;5558;42.702;23.178;2023-05-29T05:09:24;7.13;;;5.40;;
11010;SDS011;5558;42.702;23.178;2023-05-29T05:11:52;8.03;;;5.10;;
11010;SDS011;5558;42.702;23.178;2023-05-29T05:14:20;6.33;;;5.20;;
11010;SDS011;5558;42.702;23.178;2023-05-29T05:16:46;5.97;;;5.17;;
11010;SDS011;5558;42.702;23.178;2023-05-29T05:19:13;7.80;;;5.30;;
11010;SDS011;5558;42.702;23.178;2023-05-29T05:21:40;6.37;;;5.47;;
11010;SDS011;5558;42.702;23.178;2023-05-29T05:24:06;6.10;;;5.33;;
11010;SDS011;5558;42.702;23.178;2023-05-29T05:26:33;6.53;;;5.93;;
11010;SDS011;5558;42.702;23.178;2023-05-29T05:29:01;8.00;;;5.40;;
11010;SDS011;5558;42.702;23.178;2023-05-29T05:31:28;7.80;;;6.20;;
11010;SDS011;5558;42.702;23.178;2023-05-29T05:33:55;6.30;;;5.70;;
11010;SDS011;5558;42.702;23.178;2023-05-29T05:36:22;6.87;;;5.50;;
11010;SDS011;5558;42.702;23.178;2023-05-29T05:38:50;9.97;;;6.20;;
11010;SDS011;5558;42.702;23.178;2023-05-29T05:41:16;6.10;;;5.27;;
11010;SDS011;5558;42.702;23.178;2023-05-29T05:43:43;7.10;;;5.80;;
11010;SDS011;5558;42.702;23.178;2023-05-29T05:46:11;8.40;;;5.67;;
11010;SDS011;5558;42.702;23.178;2023-05-29T05:48:39;8.00;;;5.90;;
11010;SDS011;5558;42.702;23.178;2023-05-29T05:51:06;7.43;;;5.80;;
11010;SDS011;5558;42.702;23.178;2023-05-29T05:53:33;6.63;;;6.00;;
11010;SDS011;5558;42.702;23.178;2023-05-29T05:56:00;7.33;;;6.30;;
11010;SDS011;5558;42.702;23.178;2023-05-29T05:58:26;8.17;;;6.30;;
11010;SDS011;5558;42.702;23.178;2023-05-29T06:00:53;8.03;;;6.07;;
11010;SDS011;5558;42.702;23.178;2023-05-29T06:03:21;6.17;;;5.57;;
11010;SDS011;5558;42.702;23.178;2023-05-29T06:05:48;6.37;;;5.30;;
11010;SDS011;5558;42.702;23.178;2023-05-29T06:08:15;6.83;;;5.17;;
11010;SDS011;5558;42.702;23.178;2023-05-29T06:10:42;5.10;;;4.60;;
11010;SDS011;5558;42.702;23.178;2023-05-29T06:13:09;4.40;;;4.00;;
11010;SDS011;5558;42.702;23.178;2023-05-29T06:15:35;5.53;;;4.00;;
11010;SDS011;5558;42.702;23.178;2023-05-29T06:18:02;3.80;;;3.50;;
11010;SDS011;5558;42.702;23.178;2023-05-29T06:20:31;4.83;;;3.40;;
11010;SDS011;5558;42.702;23.178;2023-05-29T06:22:58;4.93;;;3.43;;
11010;SDS011;5558;42.702;23.178;2023-05-29T06:25:25;4.47;;;3.20;;
11010;SDS011;5558;42.702;23.178;2023-05-29T06:27:58;3.90;;;3.20;;
11010;SDS011;5558;42.702;23.178;2023-05-29T06:30:24;3.37;;;3.07;;
11010;SDS011;5558;42.702;23.178;2023-05-29T06:32:51;3.03;;;2.73;;
11010;SDS011;5558;42.702;23.178;2023-05-29T06:35:18;3.60;;;2.80;;
11010;SDS011;5558;42.702;23.178;2023-05-29T06:37:46;1.90;;;1.80;;
11010;SDS011;5558;42.702;23.178;2023-05-29T06:40:13;2.87;;;2.30;;
11010;SDS011;5558;42.702;23.178;2023-05-29T06:42:40;2.50;;;2.27;;
11010;SDS011;5558;42.702;23.178;2023-05-29T06:45:10;3.67;;;2.53;;
11010;SDS011;5558;42.702;23.178;2023-05-29T06:47:38;4.97;;;2.60;;
11010;SDS011;5558;42.702;23.178;2023-05-29T06:50:05;3.27;;;2.40;;
11010;SDS011;5558;42.702;23.178;2023-05-29T06:52:32;2.50;;;2.30;;
11010;SDS011;5558;42.702;23.178;2023-05-29T06:55:01;5.00;;;3.30;;
11010;SDS011;5558;42.702;23.178;2023-05-29T06:57:27;2.80;;;2.60;;
11010;SDS011;5558;42.702;23.178;2023-05-29T06:59:54;2.10;;;1.90;;
11010;SDS011;5558;42.702;23.178;2023-05-29T07:02:21;2.50;;;2.30;;
11010;SDS011;5558;42.702;23.178;2023-05-29T07:04:48;2.43;;;2.23;;
11010;SDS011;5558;42.702;23.178;2023-05-29T07:07:14;3.30;;;2.10;;
11010;SDS011;5558;42.702;23.178;2023-05-29T07:09:41;2.37;;;2.10;;
11010;SDS011;5558;42.702;23.178;2023-05-29T07:12:09;3.50;;;2.10;;
11010;SDS011;5558;42.702;23.178;2023-05-29T07:14:36;2.80;;;1.80;;
11010;SDS011;5558;42.702;23.178;2023-05-29T07:17:02;1.73;;;1.50;;
11010;SDS011;5558;42.702;23.178;2023-05-29T07:19:29;2.23;;;1.50;;
11010;SDS011;5558;42.702;23.178;2023-05-29T07:21:57;2.07;;;1.40;;
11010;SDS011;5558;42.702;23.178;2023-05-29T07:24:24;1.87;;;1.40;;
11010;SDS011;5558;42.702;23.178;2023-05-29T07:26:51;1.73;;;1.37;;
11010;SDS011;5558;42.702;23.178;2023-05-29T07:29:21;1.73;;;1.50;;
11010;SDS011;5558;42.702;23.178;2023-05-29T07:31:48;1.30;;;1.20;;
11010;SDS011;5558;42.702;23.178;2023-05-29T07:34:15;1.40;;;1.30;;
11010;SDS011;5558;42.702;23.178;2023-05-29T07:36:56;1.23;;;1.10;;
11010;SDS011;5558;42.702;23.178;2023-05-29T07:39:23;1.43;;;1.20;;
11010;SDS011;5558;42.702;23.178;2023-05-29T07:41:50;1.13;;;1.10;;
11010;SDS011;5558;42.702;23.178;2023-05-29T07:44:17;1.33;;;1.23;;
11010;SDS011;5558;42.702;23.178;2023-05-29T07:46:46;2.83;;;1.43;;
11010;SDS011;5558;42.702;23.178;2023-05-29T07:49:13;1.63;;;1.50;;
11010;SDS011;5558;42.702;23.178;2023-05-29T07:51:40;1.53;;;1.40;;
11010;SDS011;5558;42.702;23.178;2023-05-29T07:54:07;1.47;;;1.37;;
11010;SDS011;5558;42.702;23.178;2023-05-29T07:56:34;1.50;;;1.40;;
11010;SDS011;5558;42.702;23.178;2023-05-29T07:59:00;2.37;;;1.50;;
11010;SDS011;5558;42.702;23.178;2023-05-29T08:01:28;2.37;;;1.40;;
11010;SDS011;5558;42.702;23.178;2023-05-29T08:03:56;2.37;;;1.60;;
11010;SDS011;5558;42.702;23.178;2023-05-29T08:06:23;1.60;;;1.40;;
11010;SDS011;5558;42.702;23.178;2023-05-29T08:08:49;1.40;;;1.30;;
11010;SDS011;5558;42.702;23.178;2023-05-29T08:11:17;1.57;;;1.40;;
11010;SDS011;5558;42.702;23.178;2023-05-29T08:13:43;1.40;;;1.30;;
11010;SDS011;5558;42.702;23.178;2023-05-29T08:16:10;1.60;;;1.50;;
11010;SDS011;5558;42.702;23.178;2023-05-29T08:18:39;1.53;;;1.43;;
11010;SDS011;5558;42.702;23.178;2023-05-29T08:21:07;1.50;;;1.40;;
11010;SDS011;5558;42.702;23.178;2023-05-29T08:23:35;2.00;;;1.77;;
11010;SDS011;5558;42.702;23.178;2023-05-29T08:26:02;1.40;;;1.30;;
11010;SDS011;5558;42.702;23.178;2023-05-29T08:28:29;1.77;;;1.43;;
11010;SDS011;5558;42.702;23.178;2023-05-29T08:30:55;1.70;;;1.53;;
11010;SDS011;5558;42.702;23.178;2023-05-29T08:33:22;1.77;;;1.60;;
11010;SDS011;5558;42.702;23.178;2023-05-29T08:35:49;2.10;;;1.70;;
11010;SDS011;5558;42.702;23.178;2023-05-29T08:38:18;1.83;;;1.63;;
11010;SDS011;5558;42.702;23.178;2023-05-29T08:40:46;2.87;;;1.90;;
11010;SDS011;5558;42.702;23.178;2023-05-29T08:43:14;2.70;;;1.90;;
11010;SDS011;5558;42.702;23.178;2023-05-29T08:45:44;2.27;;;1.80;;
11010;SDS011;5558;42.702;23.178;2023-05-29T08:48:11;2.50;;;2.30;;
11010;SDS011;5558;42.702;23.178;2023-05-29T08:50:39;2.07;;;1.97;;
11010;SDS011;5558;42.702;23.178;2023-05-29T08:53:10;4.30;;;2.00;;
11010;SDS011;5558;42.702;23.178;2023-05-29T08:55:38;2.20;;;2.00;;
11010;SDS011;5558;42.702;23.178;2023-05-29T08:58:06;2.87;;;2.10;;
11010;SDS011;5558;42.702;23.178;2023-05-29T09:00:33;3.40;;;2.23;;
11010;SDS011;5558;42.702;23.178;2023-05-29T09:03:00;2.30;;;2.10;;
11010;SDS011;5558;42.702;23.178;2023-05-29T09:05:28;3.27;;;2.30;;
11010;SDS011;5558;42.702;23.178;2023-05-29T09:07:55;2.30;;;2.10;;
11010;SDS011;5558;42.702;23.178;2023-05-29T09:10:22;2.97;;;2.27;;
11010;SDS011;5558;42.702;23.178;2023-05-29T09:12:51;2.57;;;2.30;;
11010;SDS011;5558;42.702;23.178;2023-05-29T09:15:19;2.57;;;2.37;;
11010;SDS011;5558;42.702;23.178;2023-05-29T09:17:50;2.53;;;2.33;;
11010;SDS011;5558;42.702;23.178;2023-05-29T09:20:18;2.40;;;2.20;;
11010;SDS011;5558;42.702;23.178;2023-05-29T09:22:52;2.87;;;2.40;;
11010;SDS011;5558;42.702;23.178;2023-05-29T09:25:20;2.43;;;2.17;;
11010;SDS011;5558;42.702;23.178;2023-05-29T09:27:47;2.73;;;2.20;;
11010;SDS011;5558;42.702;23.178;2023-05-29T09:30:30;6.07;;;2.30;;
11010;SDS011;5558;42.702;23.178;2023-05-29T09:32:58;2.63;;;2.17;;
11010;SDS011;5558;42.702;23.178;2023-05-29T09:35:26;2.60;;;2.40;;
11010;SDS011;5558;42.702;23.178;2023-05-29T09:37:53;2.40;;;2.17;;
11010;SDS011;5558;42.702;23.178;2023-05-29T09:40:21;2.50;;;2.30;;
11010;SDS011;5558;42.702;23.178;2023-05-29T09:42:48;2.50;;;2.17;;
11010;SDS011;5558;42.702;23.178;2023-05-29T09:45:17;2.63;;;2.43;;
11010;SDS011;5558;42.702;23.178;2023-05-29T09:47:45;2.77;;;2.30;;
11010;SDS011;5558;42.702;23.178;2023-05-29T09:50:17;2.40;;;2.17;;
11010;SDS011;5558;42.702;23.178;2023-05-29T09:52:46;2.77;;;2.03;;
11010;SDS011;5558;42.702;23.178;2023-05-29T09:55:17;2.50;;;2.30;;
11010;SDS011;5558;42.702;23.178;2023-05-29T09:57:46;2.73;;;2.30;;
11010;SDS011;5558;42.702;23.178;2023-05-29T10:00:14;3.17;;;2.10;;
11010;SDS011;5558;42.702;23.178;2023-05-29T10:02:43;3.13;;;2.50;;
11010;SDS011;5558;42.702;23.178;2023-05-29T10:05:10;2.57;;;2.13;;
11010;SDS011;5558;42.702;23.178;2023-05-29T10:07:40;2.50;;;2.30;;
11010;SDS011;5558;42.702;23.178;2023-05-29T10:10:12;2.40;;;2.20;;
11010;SDS011;5558;42.702;23.178;2023-05-29T10:12:42;2.17;;;2.00;;
11010;SDS011;5558;42.702;23.178;2023-05-29T10:15:14;3.33;;;2.67;;
11010;SDS011;5558;42.702;23.178;2023-05-29T10:17:48;2.50;;;2.30;;
11010;SDS011;5558;42.702;23.178;2023-05-29T10:20:17;3.03;;;2.50;;
11010;SDS011;5558;42.702;23.178;2023-05-29T10:22:49;2.50;;;2.30;;
11010;SDS011;5558;42.702;23.178;2023-05-29T10:25:18;2.67;;;2.47;;
11010;SDS011;5558;42.702;23.178;2023-05-29T10:27:46;3.10;;;2.50;;
11010;SDS011;5558;42.702;23.178;2023-05-29T10:30:16;3.33;;;2.60;;
11010;SDS011;5558;42.702;23.178;2023-05-29T10:33:04;3.17;;;2.50;;
11010;SDS011;5558;42.702;23.178;2023-05-29T10:36:04;2.90;;;2.67;;
11010;SDS011;5558;42.702;23.178;2023-05-29T10:38:34;2.90;;;2.60;;
11010;SDS011;5558;42.702;23.178;2023-05-29T10:43:58;3.20;;;2.60;;
11010;SDS011;5558;42.702;23.178;2023-05-29T10:49:28;2.60;;;2.40;;
11010;SDS011;5558;42.702;23.178;2023-05-29T10:51:55;3.67;;;2.50;;
11010;SDS011;5558;42.702;23.178;2023-05-29T10:54:24;3.37;;;2.50;;
11010;SDS011;5558;42.702;23.178;2023-05-29T10:56:52;2.63;;;2.30;;
11010;SDS011;5558;42.702;23.178;2023-05-29T10:59:21;2.40;;;2.20;;
11010;SDS011;5558;42.702;23.178;2023-05-29T11:01:51;2.93;;;2.33;;
11010;SDS011;5558;42.702;23.178;2023-05-29T11:04:25;4.37;;;2.47;;
11010;SDS011;5558;42.702;23.178;2023-05-29T11:06:54;3.57;;;2.53;;
11010;SDS011;5558;42.702;23.178;2023-05-29T11:09:28;3.37;;;2.40;;
11010;SDS011;5558;42.702;23.178;2023-05-29T11:12:12;3.10;;;2.40;;
11010;SDS011;5558;42.702;23.178;2023-05-29T11:14:44;2.70;;;2.50;;
11010;SDS011;5558;42.702;23.178;2023-05-29T11:20:09;2.97;;;2.40;;
11010;SDS011;5558;42.702;23.178;2023-05-29T11:22:56;2.50;;;2.30;;
11010;SDS011;5558;42.702;23.178;2023-05-29T11:25:28;3.53;;;2.40;;
11010;SDS011;5558;42.702;23.178;2023-05-29T11:27:58;2.80;;;2.30;;
11010;SDS011;5558;42.702;23.178;2023-05-29T11:30:25;3.10;;;2.60;;
11010;SDS011;5558;42.702;23.178;2023-05-29T11:32:52;3.27;;;2.50;;
11010;SDS011;5558;42.702;23.178;2023-05-29T11:35:21;3.10;;;2.50;;
11010;SDS011;5558;42.702;23.178;2023-05-29T11:37:48;3.53;;;2.23;;
11010;SDS011;5558;42.702;23.178;2023-05-29T11:40:17;2.60;;;2.40;;
11010;SDS011;5558;42.702;23.178;2023-05-29T11:42:45;3.40;;;2.30;;
11010;SDS011;5558;42.702;23.178;2023-05-29T11:45:13;2.30;;;2.10;;
11010;SDS011;5558;42.702;23.178;2023-05-29T11:47:51;3.10;;;2.40;;
11010;SDS011;5558;42.702;23.178;2023-05-29T11:50:22;2.73;;;2.10;;
11010;SDS011;5558;42.702;23.178;2023-05-29T11:52:50;2.30;;;2.10;;
11010;SDS011;5558;42.702;23.178;2023-05-29T11:55:19;3.13;;;2.00;;
11010;SDS011;5558;42.702;23.178;2023-05-29T11:57:46;2.30;;;2.10;;
11010;SDS011;5558;42.702;23.178;2023-05-29T12:00:13;2.73;;;2.50;;
11010;SDS011;5558;42.702;23.178;2023-05-29T12:02:41;3.47;;;2.43;;
11010;SDS011;5558;42.702;23.178;2023-05-29T12:05:09;3.17;;;2.50;;
11010;SDS011;5558;42.702;23.178;2023-05-29T12:07:46;2.80;;;2.60;;
11010;SDS011;5558;42.702;23.178;2023-05-29T12:10:14;3.93;;;2.80;;
11010;SDS011;5558;42.702;23.178;2023-05-29T12:12:46;4.73;;;3.00;;
11010;SDS011;5558;42.702;23.178;2023-05-29T12:15:13;4.43;;;2.60;;
11010;SDS011;5558;42.702;23.178;2023-05-29T12:17:40;3.87;;;2.80;;
11010;SDS011;5558;42.702;23.178;2023-05-29T12:20:09;4.13;;;2.83;;
11010;SDS011;5558;42.702;23.178;2023-05-29T12:22:37;4.37;;;2.60;;
11010;SDS011;5558;42.702;23.178;2023-05-29T12:25:06;2.93;;;2.33;;
11010;SDS011;5558;42.702;23.178;2023-05-29T12:27:36;3.10;;;2.80;;
11010;SDS011;5558;42.702;23.178;2023-05-29T12:30:08;4.13;;;2.73;;
11010;SDS011;5558;42.702;23.178;2023-05-29T12:32:37;4.90;;;3.10;;
11010;SDS011;5558;42.702;23.178;2023-05-29T12:35:15;5.87;;;3.40;;
11010;SDS011;5558;42.702;23.178;2023-05-29T12:37:47;4.80;;;3.40;;
11010;SDS011;5558;42.702;23.178;2023-05-29T12:40:16;3.93;;;3.40;;
11010;SDS011;5558;42.702;23.178;2023-05-29T12:42:45;6.90;;;4.17;;
11010;SDS011;5558;42.702;23.178;2023-05-29T12:45:13;4.83;;;4.40;;
11010;SDS011;5558;42.702;23.178;2023-05-29T12:47:50;6.07;;;4.07;;
11010;SDS011;5558;42.702;23.178;2023-05-29T12:50:21;4.23;;;3.40;;
11010;SDS011;5558;42.702;23.178;2023-05-29T12:52:53;3.87;;;3.50;;
11010;SDS011;5558;42.702;23.178;2023-05-29T12:55:21;4.50;;;4.03;;
11010;SDS011;5558;42.702;23.178;2023-05-29T12:57:47;4.87;;;4.43;;
11010;SDS011;5558;42.702;23.178;2023-05-29T13:00:16;5.47;;;3.70;;
11010;SDS011;5558;42.702;23.178;2023-05-29T13:02:44;4.07;;;3.50;;
11010;SDS011;5558;42.702;23.178;2023-05-29T13:05:11;5.57;;;3.40;;
11010;SDS011;5558;42.702;23.178;2023-05-29T13:07:37;4.77;;;3.53;;
11010;SDS011;5558;42.702;23.178;2023-05-29T13:10:05;4.77;;;3.60;;
11010;SDS011;5558;42.702;23.178;2023-05-29T13:12:32;3.73;;;3.30;;
11010;SDS011;5558;42.702;23.178;2023-05-29T13:14:59;4.93;;;3.10;;
11010;SDS011;5558;42.702;23.178;2023-05-29T13:17:27;4.93;;;2.80;;
11010;SDS011;5558;42.702;23.178;2023-05-29T13:19:53;3.03;;;2.60;;
11010;SDS011;5558;42.702;23.178;2023-05-29T13:22:20;2.77;;;2.57;;
11010;SDS011;5558;42.702;23.178;2023-05-29T13:24:47;3.87;;;2.63;;
11010;SDS011;5558;42.702;23.178;2023-05-29T13:27:13;4.83;;;2.97;;
11010;SDS011;5558;42.702;23.178;2023-05-29T13:29:41;3.57;;;2.50;;
11010;SDS011;5558;42.702;23.178;2023-05-29T13:32:08;4.77;;;2.60;;
11010;SDS011;5558;42.702;23.178;2023-05-29T13:34:36;4.13;;;2.80;;
11010;SDS011;5558;42.702;23.178;2023-05-29T13:37:03;2.57;;;2.37;;
11010;SDS011;5558;42.702;23.178;2023-05-29T13:39:30;4.13;;;3.00;;
11010;SDS011;5558;42.702;23.178;2023-05-29T13:41:57;3.63;;;2.63;;
11010;SDS011;5558;42.702;23.178;2023-05-29T13:44:24;2.90;;;2.70;;
11010;SDS011;5558;42.702;23.178;2023-05-29T13:46:51;2.70;;;2.30;;
11010;SDS011;5558;42.702;23.178;2023-05-29T13:49:18;2.50;;;2.30;;
11010;SDS011;5558;42.702;23.178;2023-05-29T13:51:46;2.47;;;2.23;;
11010;SDS011;5558;42.702;23.178;2023-05-29T13:54:15;2.40;;;2.20;;
11010;SDS011;5558;42.702;23.178;2023-05-29T13:56:42;2.90;;;2.30;;
11010;SDS011;5558;42.702;23.178;2023-05-29T13:59:09;2.60;;;2.40;;
11010;SDS011;5558;42.702;23.178;2023-05-29T14:01:36;1.73;;;1.10;;
11010;SDS011;5558;42.702;23.178;2023-05-29T14:04:02;0.90;;;0.90;;
11010;SDS011;5558;42.702;23.178;2023-05-29T14:06:29;0.80;;;0.80;;
11010;SDS011;5558;42.702;23.178;2023-05-29T14:08:58;2.50;;;0.90;;
11010;SDS011;5558;42.702;23.178;2023-05-29T14:11:26;1.77;;;1.00;;
11010;SDS011;5558;42.702;23.178;2023-05-29T14:13:53;0.80;;;0.80;;
11010;SDS011;5558;42.702;23.178;2023-05-29T14:16:20;0.80;;;0.80;;
11010;SDS011;5558;42.702;23.178;2023-05-29T14:18:46;0.70;;;0.70;;
11010;SDS011;5558;42.702;23.178;2023-05-29T14:21:15;1.07;;;0.77;;
11010;SDS011;5558;42.702;23.178;2023-05-29T14:23:41;1.27;;;0.80;;
11010;SDS011;5558;42.702;23.178;2023-05-29T14:26:09;0.67;;;0.60;;
11010;SDS011;5558;42.702;23.178;2023-05-29T14:28:36;0.70;;;0.70;;
11010;SDS011;5558;42.702;23.178;2023-05-29T14:33:30;1.97;;;0.70;;
11010;SDS011;5558;42.702;23.178;2023-05-29T14:35:57;0.73;;;0.60;;
11010;SDS011;5558;42.702;23.178;2023-05-29T14:38:24;1.20;;;0.60;;
11010;SDS011;5558;42.702;23.178;2023-05-29T14:40:51;0.77;;;0.67;;
11010;SDS011;5558;42.702;23.178;2023-05-29T14:43:19;1.03;;;0.80;;
11010;SDS011;5558;42.702;23.178;2023-05-29T14:45:45;1.37;;;1.00;;
11010;SDS011;5558;42.702;23.178;2023-05-29T14:48:12;2.00;;;1.10;;
11010;SDS011;5558;42.702;23.178;2023-05-29T14:50:41;2.33;;;1.10;;
11010;SDS011;5558;42.702;23.178;2023-05-29T14:53:08;1.73;;;1.10;;
11010;SDS011;5558;42.702;23.178;2023-05-29T14:55:34;1.87;;;1.20;;
11010;SDS011;5558;42.702;23.178;2023-05-29T14:58:02;1.53;;;1.00;;
11010;SDS011;5558;42.702;23.178;2023-05-29T15:00:31;1.40;;;1.30;;
11010;SDS011;5558;42.702;23.178;2023-05-29T15:02:57;1.93;;;1.30;;
11010;SDS011;5558;42.702;23.178;2023-05-29T15:05:25;1.73;;;1.40;;